createdAt,value
2023-05-13T00:02:53.015Z,101626.50
2023-05-13T00:06:57.341Z,101630.22
2023-05-13T00:11:00.534Z,101636.09
2023-05-13T00:15:03.695Z,101631.59
2023-05-13T00:19:07.331Z,101632.09
2023-05-13T00:23:12.425Z,101635.16
2023-05-13T00:27:16.191Z,101633.16
2023-05-13T00:31:19.336Z,101633.53
2023-05-13T00:35:22.699Z,101635.94
2023-05-13T00:39:27.230Z,101626.06
2023-05-13T00:43:30.011Z,101632.00
2023-05-13T00:47:34.220Z,101632.75
2023-05-13T00:51:37.752Z,101640.84
2023-05-13T00:55:44.339Z,101633.34
2023-05-13T00:59:48.444Z,101632.41
2023-05-13T01:04:00.100Z,101634.22
2023-05-13T01:08:08.318Z,101633.41
2023-05-13T01:12:41.765Z,101635.19
2023-05-13T01:16:50.367Z,101631.84
2023-05-13T01:20:53.109Z,101631.13
2023-05-13T01:24:57.241Z,101636.63
2023-05-13T01:29:00.730Z,101637.66
2023-05-13T01:33:04.164Z,101648.72
2023-05-13T01:37:07.908Z,101648.63
2023-05-13T01:41:12.305Z,101646.84
2023-05-13T01:45:16.110Z,101645.28
2023-05-13T01:49:18.899Z,101644.56
2023-05-13T01:53:22.216Z,101651.31
2023-05-13T01:57:29.847Z,101650.16
2023-05-13T02:01:33.654Z,101650.16
2023-05-13T02:05:37.541Z,101652.25
2023-05-13T02:09:43.497Z,101646.44
2023-05-13T02:13:48.251Z,101651.50
2023-05-13T02:17:51.266Z,101653.66
2023-05-13T02:21:55.304Z,101643.41
2023-05-13T02:25:58.976Z,101655.66
2023-05-13T02:30:05.456Z,101650.88
2023-05-13T02:34:08.380Z,101644.44
2023-05-13T02:38:11.349Z,101640.53
2023-05-13T02:42:14.136Z,101643.38
2023-05-13T02:46:18.463Z,101642.41
2023-05-13T02:50:21.796Z,101641.44
2023-05-13T02:54:25.465Z,101640.25
2023-05-13T02:58:28.233Z,101638.56
2023-05-13T03:02:34.184Z,101638.34
2023-05-13T03:06:37.477Z,101632.06
2023-05-13T03:10:41.529Z,101635.00
2023-05-13T03:14:44.504Z,101635.22
2023-05-13T03:18:48.908Z,101632.38
2023-05-13T03:22:52.748Z,101637.72
2023-05-13T03:26:58.616Z,101631.03
2023-05-13T03:31:02.574Z,101631.28
2023-05-13T03:35:10.651Z,101627.31
2023-05-13T03:39:14.147Z,101626.75
2023-05-13T03:43:18.071Z,101628.88
2023-05-13T03:47:26.067Z,101628.97
2023-05-13T03:51:32.973Z,101637.34
2023-05-13T03:55:38.210Z,101639.72
2023-05-13T03:59:41.025Z,101627.59
2023-05-13T04:03:45.364Z,101628.81
2023-05-13T04:07:49.604Z,101638.66
2023-05-13T04:11:52.405Z,101642.78
2023-05-13T04:15:55.510Z,101637.13
2023-05-13T04:19:58.490Z,101645.69
2023-05-13T04:24:02.862Z,101652.34
2023-05-13T04:28:07.095Z,101645.16
2023-05-13T04:32:21.256Z,101653.84
2023-05-13T04:36:26.429Z,101654.19
2023-05-13T04:40:32.714Z,101658.38
2023-05-13T04:44:41.171Z,101662.53
2023-05-13T04:48:48.031Z,101662.75
2023-05-13T04:52:52.095Z,101674.03
2023-05-13T04:56:57.225Z,101681.91
2023-05-13T05:01:00.775Z,101676.81
2023-05-13T05:05:03.795Z,101680.50
2023-05-13T05:09:06.712Z,101682.31
2023-05-13T05:13:12.037Z,101676.38
2023-05-13T05:17:15.615Z,101688.28
2023-05-13T05:21:19.060Z,101690.66
2023-05-13T05:25:22.673Z,101687.81
2023-05-13T05:29:27.440Z,101691.28
2023-05-13T05:33:31.381Z,101693.31
2023-05-13T05:37:34.384Z,101697.50
2023-05-13T05:41:37.990Z,101687.31
2023-05-13T05:45:42.446Z,101692.53
2023-05-13T05:49:49.688Z,101689.44
2023-05-13T05:53:52.674Z,101691.84
2023-05-13T05:57:55.933Z,101693.63
2023-05-13T06:02:00.984Z,101696.50
2023-05-13T06:06:04.054Z,101701.47
2023-05-13T06:10:08.393Z,101701.72
2023-05-13T06:14:19.566Z,101686.88
2023-05-13T06:18:23.941Z,101702.34
2023-05-13T06:22:27.214Z,101699.09
2023-05-13T06:26:31.017Z,101691.59
2023-05-13T06:30:33.951Z,101694.91
2023-05-13T06:34:45.664Z,101692.28
2023-05-13T06:38:50.798Z,101690.25
2023-05-13T06:42:53.716Z,101699.41
2023-05-13T06:47:05.586Z,101702.16
2023-05-13T06:51:09.815Z,101698.81
2023-05-13T06:55:13.116Z,101701.75
2023-05-13T06:59:47.029Z,101702.09
2023-05-13T07:03:50.086Z,101708.81
2023-05-13T07:08:00.024Z,101705.22
2023-05-13T07:12:02.988Z,101699.72
2023-05-13T07:16:06.257Z,101714.84
2023-05-13T07:20:10.232Z,101714.75
2023-05-13T07:24:14.894Z,101712.78
2023-05-13T07:28:17.693Z,101711.03
2023-05-13T07:32:21.059Z,101704.97
2023-05-13T07:36:24.014Z,101705.28
2023-05-13T07:40:28.105Z,101707.53
2023-05-13T07:44:30.849Z,101712.31
2023-05-13T07:48:33.941Z,101709.78
2023-05-13T07:52:37.137Z,101698.97
2023-05-13T07:56:44.093Z,101701.03
2023-05-13T08:00:49.323Z,101698.50
2023-05-13T08:04:52.418Z,101704.69
2023-05-13T08:08:55.288Z,101705.16
2023-05-13T08:13:00.961Z,101705.63
2023-05-13T08:17:06.265Z,101701.56
2023-05-13T08:21:09.261Z,101701.16
2023-05-13T08:25:12.557Z,101700.28
2023-05-13T08:29:17.165Z,101707.88
2023-05-13T08:33:20.066Z,101702.47
2023-05-13T08:37:23.085Z,101699.94
2023-05-13T08:41:25.849Z,101705.09
2023-05-13T08:45:32.241Z,101706.91
2023-05-13T08:49:42.048Z,101702.66
2023-05-13T08:53:49.099Z,101709.84
2023-05-13T08:57:54.745Z,101705.56
2023-05-13T09:02:03.050Z,101698.94
2023-05-13T09:06:06.458Z,101694.97
2023-05-13T09:10:11.508Z,101697.25
2023-05-13T09:14:14.608Z,101708.19
2023-05-13T09:18:21.515Z,101704.59
2023-05-13T09:22:25.675Z,101702.66
2023-05-13T09:26:29.167Z,101707.63
2023-05-13T09:30:35.637Z,101695.19
2023-05-13T09:34:51.959Z,101693.47
2023-05-13T09:38:56.725Z,101703.94
2023-05-13T09:43:00.582Z,101699.84
2023-05-13T09:47:04.713Z,101681.97
2023-05-13T09:51:10.030Z,101689.41
2023-05-13T09:55:12.930Z,101688.41
2023-05-13T09:59:17.194Z,101682.28
2023-05-13T10:03:21.485Z,101674.69
2023-05-13T10:07:27.335Z,101673.56
2023-05-13T10:11:39.636Z,101661.53
2023-05-13T10:15:49.988Z,101661.63
2023-05-13T10:19:54.530Z,101662.41
2023-05-13T10:23:59.868Z,101663.34
2023-05-13T10:28:20.272Z,101651.47
2023-05-13T10:32:40.467Z,101649.38
2023-05-13T10:37:12.786Z,101643.91
2023-05-13T10:41:53.310Z,101643.69
2023-05-13T10:45:59.599Z,101641.38
2023-05-13T10:50:06.484Z,101646.00
2023-05-13T10:54:20.361Z,101645.66
2023-05-13T10:58:31.912Z,101640.63
2023-05-13T11:02:40.349Z,101636.34
2023-05-13T11:06:46.320Z,101641.59
2023-05-13T11:10:56.188Z,101637.75
2023-05-13T11:15:00.434Z,101637.50
2023-05-13T11:19:04.357Z,101635.63
2023-05-13T11:23:08.610Z,101635.03
2023-05-13T11:27:16.393Z,101626.56
2023-05-13T11:31:21.440Z,101626.81
2023-05-13T11:35:25.854Z,101623.53
2023-05-13T11:39:28.744Z,101624.16
2023-05-13T11:43:34.721Z,101620.84
2023-05-13T11:47:39.052Z,101626.69
2023-05-13T11:51:41.911Z,101637.81
2023-05-13T11:55:44.783Z,101615.72
2023-05-13T11:59:51.970Z,101609.47
2023-05-13T12:04:04.018Z,101610.81
2023-05-13T12:08:10.595Z,101615.84
2023-05-13T12:12:13.473Z,101614.03
2023-05-13T12:16:16.810Z,101607.16
2023-05-13T12:20:22.645Z,101600.78
2023-05-13T12:24:25.630Z,101606.25
2023-05-13T12:28:28.402Z,101603.59
2023-05-13T12:32:31.237Z,101598.88
2023-05-13T12:36:38.623Z,101598.81
2023-05-13T12:40:41.348Z,101605.84
2023-05-13T12:44:45.809Z,101602.88
2023-05-13T12:48:48.572Z,101598.06
2023-05-13T12:52:53.296Z,101605.97
2023-05-13T12:56:56.343Z,101601.06
2023-05-13T13:00:59.104Z,101598.34
2023-05-13T13:05:01.857Z,101598.13
2023-05-13T13:09:06.236Z,101584.00
2023-05-13T13:13:09.191Z,101591.75
2023-05-13T13:17:11.972Z,101590.28
2023-05-13T13:21:14.698Z,101583.03
2023-05-13T13:25:18.811Z,101577.59
2023-05-13T13:29:21.885Z,101581.09
2023-05-13T13:33:24.708Z,101584.00
2023-05-13T13:37:27.579Z,101581.91
2023-05-13T13:41:32.166Z,101580.44
2023-05-13T13:45:35.151Z,101580.09
2023-05-13T13:49:38.048Z,101557.53
2023-05-13T13:53:40.929Z,101553.56
2023-05-13T13:57:45.199Z,101556.88
2023-05-13T14:01:48.310Z,101546.59
2023-05-13T14:05:51.928Z,101547.97
2023-05-13T14:09:54.732Z,101547.84
2023-05-13T14:13:58.970Z,101542.06
2023-05-13T14:18:01.805Z,101543.00
2023-05-13T14:22:04.847Z,101534.31
2023-05-13T14:26:08.456Z,101530.63
2023-05-13T14:30:13.474Z,101528.19
2023-05-13T14:34:16.571Z,101527.06
2023-05-13T14:38:19.858Z,101526.44
2023-05-13T14:42:23.162Z,101519.97
2023-05-13T14:46:27.758Z,101522.13
2023-05-13T14:50:30.541Z,101517.78
2023-05-13T14:54:35.787Z,101526.91
2023-05-13T14:58:39.033Z,101517.56
2023-05-13T15:02:43.261Z,101521.25
2023-05-13T15:06:46.264Z,101510.69
2023-05-13T15:10:49.008Z,101512.81
2023-05-13T15:14:53.475Z,101513.97
2023-05-13T15:18:57.778Z,101507.56
2023-05-13T15:23:00.563Z,101506.06
2023-05-13T15:27:03.663Z,101506.75
2023-05-13T15:31:07.250Z,101505.75
2023-05-13T15:35:11.584Z,101499.56
2023-05-13T15:39:14.397Z,101504.03
2023-05-13T15:43:17.962Z,101499.84
2023-05-13T15:47:21.032Z,101494.13
2023-05-13T15:51:25.430Z,101493.66
2023-05-13T15:55:28.164Z,101487.88
2023-05-13T15:59:30.913Z,101490.63
2023-05-13T16:03:33.642Z,101486.06
2023-05-13T16:07:37.740Z,101490.88
2023-05-13T16:11:40.409Z,101489.28
2023-05-13T16:15:43.220Z,101481.25
2023-05-13T16:19:46.029Z,101472.41
2023-05-13T16:23:51.003Z,101472.88
2023-05-13T16:27:55.034Z,101471.56
2023-05-13T16:31:58.030Z,101470.56
2023-05-13T16:36:00.825Z,101473.53
2023-05-13T16:40:05.599Z,101481.53
2023-05-13T16:44:08.351Z,101478.59
2023-05-13T16:48:11.326Z,101482.19
2023-05-13T16:52:14.528Z,101486.09
2023-05-13T16:56:18.769Z,101486.63
2023-05-13T17:00:21.942Z,101482.56
2023-05-13T17:04:24.778Z,101480.81
2023-05-13T17:08:27.515Z,101484.88
2023-05-13T17:12:31.823Z,101480.50
2023-05-13T17:16:34.942Z,101485.13
2023-05-13T17:20:37.705Z,101483.50
2023-05-13T17:24:40.672Z,101484.09
2023-05-13T17:28:44.748Z,101479.09
2023-05-13T17:32:47.738Z,101482.66
2023-05-13T17:36:50.895Z,101490.34
2023-05-13T17:40:54.318Z,101485.72
2023-05-13T17:44:58.805Z,101488.19
2023-05-13T17:49:01.704Z,101493.94
2023-05-13T17:53:32.956Z,101494.84
2023-05-13T17:57:37.638Z,101503.06
2023-05-13T18:01:41.784Z,101504.88
2023-05-13T18:05:46.121Z,101488.66
2023-05-13T18:09:50.552Z,101507.50
2023-05-13T18:13:54.167Z,101510.72
2023-05-13T18:17:58.335Z,101505.44
2023-05-13T18:22:01.336Z,101497.06
2023-05-13T18:26:04.436Z,101502.53
2023-05-13T18:30:08.318Z,101510.78
2023-05-13T18:34:12.569Z,101509.19
2023-05-13T18:38:15.399Z,101509.53
2023-05-13T18:42:18.320Z,101506.94
2023-05-13T18:46:21.304Z,101519.75
2023-05-13T18:50:26.075Z,101516.00
2023-05-13T18:54:29.385Z,101514.47
2023-05-13T19:03:04.552Z,101526.38
2023-05-13T19:07:08.854Z,101532.59
2023-05-13T19:12:02.012Z,101529.13
2023-05-13T19:16:05.012Z,101528.97
2023-05-13T19:20:09.378Z,101532.13
2023-05-13T19:24:13.666Z,101532.78
2023-05-13T19:28:17.388Z,101533.16
2023-05-13T19:32:20.217Z,101543.19
2023-05-13T19:36:26.020Z,101543.81
2023-05-13T19:40:30.567Z,101551.59
2023-05-13T19:44:34.074Z,101544.78
2023-05-13T19:48:36.784Z,101553.13
2023-05-13T19:52:43.643Z,101545.16
2023-05-13T19:56:47.779Z,101559.56
2023-05-13T20:00:50.704Z,101565.38
2023-05-13T20:04:55.857Z,101556.28
2023-05-13T20:08:58.574Z,101568.69
2023-05-13T20:13:04.030Z,101569.53
2023-05-13T20:17:07.057Z,101567.34
2023-05-13T20:21:10.101Z,101564.88
2023-05-13T20:25:12.969Z,101564.88
2023-05-13T20:29:21.040Z,101566.28
2023-05-13T20:33:24.104Z,101568.19
2023-05-13T20:37:26.955Z,101560.75
2023-05-13T20:41:29.967Z,101556.88
2023-05-13T20:45:36.465Z,101559.38
2023-05-13T20:49:39.855Z,101558.25
2023-05-13T20:53:42.908Z,101559.94
2023-05-13T20:57:45.603Z,101558.00
2023-05-13T21:01:49.751Z,101555.25
2023-05-13T21:05:52.625Z,101559.34
2023-05-13T21:09:55.366Z,101558.00
2023-05-13T21:13:58.171Z,101561.84
2023-05-13T21:18:02.312Z,101562.13
2023-05-13T21:22:05.902Z,101559.94
2023-05-13T21:26:08.671Z,101557.47
2023-05-13T21:30:12.486Z,101562.41
2023-05-13T21:34:16.601Z,101557.41
2023-05-13T21:38:19.305Z,101573.91
2023-05-13T21:42:22.155Z,101567.28
2023-05-13T21:46:25.303Z,101566.72
2023-05-13T21:50:29.446Z,101557.91
2023-05-13T21:54:32.655Z,101560.63
2023-05-13T21:58:35.403Z,101565.56
2023-05-13T22:02:38.716Z,101571.59
2023-05-13T22:06:43.187Z,101569.09
2023-05-13T22:10:45.944Z,101571.22
2023-05-13T22:14:48.678Z,101569.56
2023-05-13T22:18:51.692Z,101575.31
2023-05-13T22:22:55.808Z,101572.44
2023-05-13T22:26:58.642Z,101570.19
2023-05-13T22:31:01.518Z,101576.16
2023-05-13T22:35:04.503Z,101570.91
2023-05-13T22:39:08.740Z,101563.97
2023-05-13T22:43:11.386Z,101563.09
2023-05-13T22:47:14.430Z,101567.41
2023-05-13T22:51:17.174Z,101566.00
2023-05-13T22:55:22.099Z,101560.97
2023-05-13T22:59:24.820Z,101555.16
2023-05-13T23:03:27.528Z,101554.22
2023-05-13T23:07:30.378Z,101552.78
2023-05-13T23:11:36.238Z,101547.19
2023-05-13T23:15:39.283Z,101556.41
2023-05-13T23:19:42.002Z,101554.06
2023-05-13T23:23:44.699Z,101552.06
2023-05-13T23:27:48.750Z,101554.16
2023-05-13T23:31:51.434Z,101551.63
2023-05-13T23:35:54.291Z,101551.47
2023-05-13T23:39:57.056Z,101545.28
2023-05-13T23:44:01.106Z,101546.56
2023-05-13T23:48:03.861Z,101546.75
2023-05-13T23:52:07.297Z,101549.94
2023-05-13T23:56:10.015Z,101536.66
